createdAt,value
2019-05-16T00:01:50.376Z,7.50
2019-05-16T00:03:54.120Z,7.40
2019-05-16T00:06:01.339Z,7.40
2019-05-16T00:08:05.193Z,7.30
2019-05-16T00:10:11.653Z,7.30
2019-05-16T00:12:18.365Z,7.20
2019-05-16T00:14:28.175Z,7.20
2019-05-16T00:16:32.012Z,7.20
2019-05-16T00:18:35.821Z,7.30
2019-05-16T00:20:41.257Z,7.20
2019-05-16T00:22:48.476Z,7.30
2019-05-16T00:24:52.189Z,7.20
2019-05-16T00:26:57.932Z,7.20
2019-05-16T00:29:01.388Z,7.20
2019-05-16T00:31:05.229Z,7.20
2019-05-16T00:33:08.971Z,7.20
2019-05-16T00:35:14.162Z,7.20
2019-05-16T00:37:22.926Z,7.20
2019-05-16T00:39:24.918Z,7.10
2019-05-16T00:41:28.667Z,7.00
2019-05-16T00:43:37.769Z,6.90
2019-05-16T00:45:44.210Z,6.90
2019-05-16T00:47:48.171Z,6.80
2019-05-16T00:49:51.972Z,6.80
2019-05-16T00:51:55.865Z,6.80
2019-05-16T00:53:59.765Z,6.70
2019-05-16T00:56:03.983Z,6.70
2019-05-16T00:58:09.874Z,6.60
2019-05-16T01:00:14.298Z,6.60
2019-05-16T01:02:18.261Z,6.50
2019-05-16T01:04:22.191Z,6.50
2019-05-16T01:06:25.933Z,6.50
2019-05-16T01:08:32.774Z,6.40
2019-05-16T01:10:38.927Z,6.40
2019-05-16T01:12:42.032Z,6.40
2019-05-16T01:14:47.795Z,6.40
2019-05-16T01:16:51.901Z,6.30
2019-05-16T01:18:55.811Z,6.30
2019-05-16T01:20:59.582Z,6.20
2019-05-16T01:23:08.822Z,6.20
2019-05-16T01:25:10.302Z,6.20
2019-05-16T01:27:14.444Z,6.30
2019-05-16T01:29:18.897Z,6.30
2019-05-16T01:31:28.198Z,6.30
2019-05-16T01:33:31.923Z,6.30
2019-05-16T01:35:35.608Z,6.30
2019-05-16T01:37:39.421Z,6.30
2019-05-16T01:39:44.841Z,6.30
2019-05-16T01:41:48.477Z,6.20
2019-05-16T01:43:52.256Z,6.20
2019-05-16T01:45:57.770Z,6.10
2019-05-16T01:48:01.506Z,6.10
2019-05-16T01:50:09.793Z,6.00
2019-05-16T01:52:17.669Z,6.00
2019-05-16T01:54:20.642Z,6.00
2019-05-16T01:56:24.378Z,6.00
2019-05-16T01:58:28.987Z,6.00
2019-05-16T02:00:37.671Z,6.00
2019-05-16T02:02:40.156Z,6.00
2019-05-16T02:04:43.912Z,6.00
2019-05-16T02:06:55.201Z,6.00
2019-05-16T02:09:00.914Z,6.00
2019-05-16T02:11:08.596Z,6.00
2019-05-16T02:13:12.739Z,6.00
2019-05-16T02:15:18.396Z,6.10
2019-05-16T02:17:22.275Z,6.00
2019-05-16T02:19:28.027Z,6.00
2019-05-16T02:21:31.866Z,6.00
2019-05-16T02:23:35.486Z,6.00
2019-05-16T02:25:40.851Z,6.00
2019-05-16T02:27:44.704Z,5.90
2019-05-16T02:29:50.556Z,5.90
2019-05-16T02:31:57.291Z,5.90
2019-05-16T02:34:04.439Z,5.90
2019-05-16T02:36:10.821Z,5.90
2019-05-16T02:38:12.211Z,5.90
2019-05-16T02:40:20.989Z,5.90
2019-05-16T02:42:24.433Z,5.90
2019-05-16T02:44:31.483Z,5.90
2019-05-16T02:46:33.859Z,6.00
2019-05-16T02:48:40.811Z,6.00
2019-05-16T02:50:43.044Z,6.00
2019-05-16T02:52:46.879Z,6.00
2019-05-16T02:54:51.731Z,6.00
2019-05-16T02:57:04.836Z,6.00
2019-05-16T02:59:11.677Z,6.00
2019-05-16T03:01:15.672Z,6.00
2019-05-16T03:03:21.326Z,6.00
2019-05-16T03:05:27.529Z,6.00
2019-05-16T03:07:41.059Z,6.00
2019-05-16T03:09:41.114Z,5.90
2019-05-16T03:11:44.890Z,5.90
2019-05-16T03:13:51.142Z,5.90
2019-05-16T03:15:54.761Z,5.90
2019-05-16T03:18:04.246Z,5.90
2019-05-16T03:20:10.819Z,5.90
2019-05-16T03:22:21.988Z,5.80
2019-05-16T03:24:25.137Z,5.80
2019-05-16T03:26:31.417Z,5.80
2019-05-16T03:28:35.614Z,5.70
2019-05-16T03:30:46.789Z,5.70
2019-05-16T03:32:54.629Z,5.60
2019-05-16T03:35:15.344Z,5.60
2019-05-16T03:37:16.541Z,5.60
2019-05-16T03:39:21.270Z,5.60
2019-05-16T03:41:25.172Z,5.50
2019-05-16T03:43:30.991Z,5.50
2019-05-16T03:45:41.392Z,5.60
2019-05-16T03:47:42.728Z,5.50
2019-05-16T03:49:51.560Z,5.50
2019-05-16T03:52:01.464Z,5.50
2019-05-16T03:54:05.675Z,5.50
2019-05-16T03:56:11.181Z,5.40
2019-05-16T03:58:15.331Z,5.50
2019-05-16T04:00:25.936Z,5.50
2019-05-16T04:02:31.310Z,5.40
2019-05-16T04:04:35.181Z,5.50
2019-05-16T04:06:41.594Z,5.50
2019-05-16T04:08:44.396Z,5.50
2019-05-16T04:10:52.237Z,5.50
2019-05-16T04:12:53.748Z,5.50
2019-05-16T04:14:57.605Z,5.60
2019-05-16T04:17:01.557Z,5.60
2019-05-16T04:19:06.117Z,5.60
2019-05-16T04:21:11.791Z,5.60
2019-05-16T04:23:16.145Z,5.60
2019-05-16T04:25:21.708Z,5.60
2019-05-16T04:27:30.674Z,5.60
2019-05-16T04:29:32.723Z,5.70
2019-05-16T04:31:36.612Z,5.70
2019-05-16T04:33:41.977Z,5.70
2019-05-16T04:35:57.610Z,5.70
2019-05-16T04:38:01.567Z,5.70
2019-05-16T04:40:05.680Z,5.70
2019-05-16T04:42:10.977Z,5.70
2019-05-16T04:44:21.066Z,5.70
2019-05-16T04:46:23.617Z,5.80
2019-05-16T04:48:27.462Z,5.80
2019-05-16T04:50:31.405Z,5.90
2019-05-16T04:52:42.582Z,5.90
2019-05-16T04:54:45.352Z,5.90
2019-05-16T04:56:51.376Z,6.00
2019-05-16T04:58:54.481Z,6.00
2019-05-16T05:01:12.519Z,6.10
2019-05-16T05:03:07.443Z,6.10
2019-05-16T05:05:13.046Z,6.10
2019-05-16T05:07:16.992Z,6.10
2019-05-16T05:09:20.988Z,6.10
2019-05-16T05:11:25.130Z,6.10
2019-05-16T05:13:30.699Z,6.10
2019-05-16T05:15:40.020Z,6.20
2019-05-16T05:17:43.137Z,6.20
2019-05-16T05:19:46.926Z,6.20
2019-05-16T05:21:51.411Z,6.30
2019-05-16T05:23:59.947Z,6.30
2019-05-16T05:26:03.009Z,6.30
2019-05-16T05:28:10.049Z,6.40
2019-05-16T05:30:14.913Z,6.40
2019-05-16T05:32:20.041Z,6.40
2019-05-16T05:34:25.249Z,6.40
2019-05-16T05:36:30.514Z,6.40
2019-05-16T05:38:35.825Z,6.40
2019-05-16T05:40:40.485Z,6.40
2019-05-16T05:42:44.585Z,6.40
2019-05-16T05:44:50.656Z,6.40
2019-05-16T05:46:53.949Z,6.40
2019-05-16T05:48:59.793Z,6.40
2019-05-16T05:51:02.992Z,6.40
2019-05-16T05:53:06.809Z,6.30
2019-05-16T05:55:10.898Z,6.30
2019-05-16T05:57:20.710Z,6.30
2019-05-16T05:59:21.827Z,6.40
2019-05-16T06:01:27.261Z,6.40
2019-05-16T06:03:32.704Z,6.50
2019-05-16T06:05:36.392Z,6.60
2019-05-16T06:07:42.331Z,6.70
2019-05-16T06:09:53.478Z,6.70
2019-05-16T06:11:51.655Z,6.90
2019-05-16T06:13:55.407Z,7.00
2019-05-16T06:16:00.211Z,7.10
2019-05-16T06:18:05.701Z,7.30
2019-05-16T06:20:14.599Z,7.50
2019-05-16T06:22:15.223Z,7.60
2019-05-16T06:24:22.382Z,7.80
2019-05-16T06:26:26.254Z,8.00
2019-05-16T06:28:30.858Z,8.20
2019-05-16T06:30:36.230Z,8.50
2019-05-16T06:32:40.063Z,8.70
2019-05-16T06:34:43.819Z,8.90
2019-05-16T06:36:50.870Z,9.20
2019-05-16T06:38:54.535Z,9.50
2019-05-16T06:41:00.446Z,9.80
2019-05-16T06:43:03.906Z,10.00
2019-05-16T06:45:10.108Z,10.20
2019-05-16T06:47:19.773Z,10.40
2019-05-16T06:49:20.460Z,10.60
2019-05-16T06:51:24.177Z,10.80
2019-05-16T06:53:29.913Z,11.00
2019-05-16T06:55:33.439Z,11.20
2019-05-16T06:57:37.238Z,11.20
2019-05-16T06:59:42.652Z,11.40
2019-05-16T07:01:46.424Z,11.40
2019-05-16T07:03:53.378Z,11.40
2019-05-16T07:05:57.127Z,11.40
2019-05-16T07:08:01.032Z,11.40
2019-05-16T07:10:05.648Z,11.40
2019-05-16T07:12:10.484Z,11.50
2019-05-16T07:14:14.458Z,11.50
2019-05-16T07:16:20.625Z,11.50
2019-05-16T07:18:24.654Z,11.60
2019-05-16T07:20:30.418Z,11.70
2019-05-16T07:22:35.833Z,11.90
2019-05-16T07:24:45.569Z,11.90
2019-05-16T07:26:46.761Z,11.90
2019-05-16T07:28:51.641Z,12.00
2019-05-16T07:30:55.771Z,12.10
2019-05-16T07:33:01.407Z,12.10
2019-05-16T07:35:10.187Z,12.10
2019-05-16T07:37:13.929Z,12.10
2019-05-16T07:39:19.821Z,12.30
2019-05-16T07:41:23.151Z,12.40
2019-05-16T07:43:30.792Z,12.60
2019-05-16T07:45:37.715Z,12.60
2019-05-16T07:47:40.504Z,12.80
2019-05-16T07:49:44.360Z,12.90
2019-05-16T07:51:49.850Z,12.90
2019-05-16T07:53:53.730Z,13.10
2019-05-16T07:55:59.944Z,13.10
2019-05-16T07:58:02.996Z,13.30
2019-05-16T08:00:09.704Z,13.30
2019-05-16T08:02:16.486Z,13.30
2019-05-16T08:04:20.369Z,13.40
2019-05-16T08:06:27.443Z,13.50
2019-05-16T08:08:31.794Z,13.30
2019-05-16T08:10:41.792Z,13.20
2019-05-16T08:12:41.285Z,13.20
2019-05-16T08:14:46.752Z,13.20
2019-05-16T08:16:50.628Z,13.30
2019-05-16T08:18:54.403Z,13.50
2019-05-16T08:21:00.768Z,13.70
2019-05-16T08:23:05.222Z,14.00
2019-05-16T08:25:10.640Z,14.10
2019-05-16T08:27:14.895Z,14.20
2019-05-16T08:29:25.705Z,14.20
2019-05-16T08:31:31.917Z,14.10
2019-05-16T08:33:41.530Z,13.90
2019-05-16T08:35:45.777Z,13.90
2019-05-16T08:37:54.023Z,13.70
2019-05-16T08:40:00.210Z,13.80
2019-05-16T08:42:08.471Z,14.00
2019-05-16T08:44:12.445Z,14.10
2019-05-16T08:46:20.749Z,14.10
2019-05-16T08:48:35.730Z,14.00
2019-05-16T08:50:35.073Z,14.10
2019-05-16T08:52:36.468Z,14.20
2019-05-16T08:54:43.910Z,14.10
2019-05-16T08:56:45.817Z,13.90
2019-05-16T09:00:55.719Z,13.70
2019-05-16T09:03:02.704Z,13.60
2019-05-16T09:05:13.069Z,13.50
2019-05-16T09:07:13.030Z,13.60
2019-05-16T09:10:25.130Z,13.80
2019-05-16T09:10:40.778Z,13.70
2019-05-16T09:13:30.298Z,13.80
2019-05-16T09:15:34.165Z,14.00
2019-05-16T09:17:38.551Z,14.00
2019-05-16T09:18:37.937Z,13.70
2019-05-16T09:19:42.385Z,14.00
2019-05-16T09:21:50.394Z,14.00
2019-05-16T09:23:51.859Z,14.00
2019-05-16T09:25:58.477Z,14.00
2019-05-16T09:28:02.873Z,14.10
2019-05-16T09:30:08.642Z,14.20
2019-05-16T09:32:17.873Z,14.30
2019-05-16T09:34:18.122Z,14.50
2019-05-16T09:36:23.397Z,14.50
2019-05-16T09:38:28.603Z,14.80
2019-05-16T09:40:32.710Z,15.00
2019-05-16T09:42:37.220Z,15.30
2019-05-16T09:44:41.221Z,15.70
2019-05-16T09:46:47.132Z,15.80
2019-05-16T09:49:11.643Z,15.80
2019-05-16T09:50:57.687Z,15.90
2019-05-16T09:53:01.838Z,15.90
2019-05-16T09:55:07.063Z,16.00
2019-05-16T09:57:11.095Z,16.30
2019-05-16T09:59:17.197Z,16.50
2019-05-16T10:01:21.320Z,16.70
2019-05-16T10:03:27.252Z,17.00
2019-05-16T10:05:31.258Z,16.90
2019-05-16T10:07:38.527Z,16.70
2019-05-16T10:09:44.978Z,16.70
2019-05-16T10:11:49.166Z,16.70
2019-05-16T10:13:51.454Z,16.80
2019-05-16T10:15:56.743Z,17.10
2019-05-16T10:18:02.484Z,17.10
2019-05-16T10:20:07.881Z,17.00
2019-05-16T10:22:16.877Z,17.20
2019-05-16T10:24:21.474Z,17.60
2019-05-16T10:26:27.662Z,17.80
2019-05-16T10:28:30.489Z,17.80
2019-05-16T10:30:34.194Z,17.80
2019-05-16T10:32:39.839Z,17.70
2019-05-16T10:34:43.609Z,17.60
2019-05-16T10:36:47.417Z,17.60
2019-05-16T10:38:51.339Z,17.50
2019-05-16T10:40:56.578Z,17.50
2019-05-16T10:43:00.818Z,17.70
2019-05-16T10:45:08.330Z,17.70
2019-05-16T10:47:13.339Z,17.80
2019-05-16T10:49:25.715Z,18.00
2019-05-16T10:51:23.965Z,18.30
2019-05-16T10:54:00.059Z,18.60
2019-05-16T10:55:33.458Z,18.90
2019-05-16T10:57:38.131Z,18.80
2019-05-16T11:01:48.976Z,18.50
2019-05-16T11:03:52.865Z,18.60
2019-05-16T11:06:05.374Z,18.50
2019-05-16T11:08:02.346Z,18.40
2019-05-16T11:10:07.437Z,18.40
2019-05-16T11:12:12.244Z,18.40
2019-05-16T11:14:17.283Z,18.40
2019-05-16T11:16:27.411Z,18.40
2019-05-16T11:18:30.858Z,18.60
2019-05-16T11:20:37.177Z,18.60
2019-05-16T11:22:40.346Z,18.70
2019-05-16T11:24:45.019Z,18.90
2019-05-16T11:26:49.706Z,19.00
2019-05-16T11:28:53.584Z,19.10
2019-05-16T11:31:12.852Z,19.30
2019-05-16T11:33:17.473Z,19.40
2019-05-16T11:35:21.558Z,19.50
2019-05-16T11:37:28.239Z,19.50
2019-05-16T11:39:32.078Z,19.30
2019-05-16T11:41:36.067Z,19.30
2019-05-16T11:43:40.156Z,19.10
2019-05-16T11:45:43.892Z,18.60
2019-05-16T11:47:47.840Z,18.40
2019-05-16T11:49:52.292Z,18.20
2019-05-16T11:52:24.643Z,18.00
2019-05-16T11:54:28.446Z,18.00
2019-05-16T11:56:33.817Z,17.90
2019-05-16T11:58:37.629Z,18.20
2019-05-16T12:00:41.460Z,18.60
2019-05-16T12:02:51.001Z,18.70
2019-05-16T12:04:57.822Z,18.90
2019-05-16T12:07:02.318Z,19.00
2019-05-16T12:09:08.154Z,19.20
2019-05-16T12:11:19.670Z,19.40
2019-05-16T12:13:28.223Z,19.70
2019-05-16T12:15:27.377Z,19.80
2019-05-16T12:17:31.001Z,19.90
2019-05-16T12:19:43.537Z,20.10
2019-05-16T12:21:46.084Z,20.00
2019-05-16T12:23:47.391Z,20.10
2019-05-16T12:25:51.260Z,19.70
2019-05-16T12:27:56.926Z,19.70
2019-05-16T12:30:00.651Z,19.80
2019-05-16T12:32:07.707Z,19.90
2019-05-16T12:34:12.713Z,19.80
2019-05-16T12:36:17.582Z,19.80
2019-05-16T12:38:21.538Z,19.80
2019-05-16T12:40:26.967Z,19.80
2019-05-16T12:42:30.793Z,19.90
2019-05-16T12:44:34.601Z,19.90
2019-05-16T12:46:38.701Z,20.00
2019-05-16T12:48:42.514Z,20.10
2019-05-16T12:50:47.995Z,20.00
2019-05-16T12:52:51.964Z,20.00
2019-05-16T12:54:57.439Z,20.10
2019-05-16T12:57:01.327Z,20.10
2019-05-16T12:59:05.205Z,20.10
2019-05-16T13:01:10.636Z,20.10
2019-05-16T13:03:14.407Z,20.10
2019-05-16T13:05:21.986Z,19.80
2019-05-16T13:07:26.940Z,19.80
2019-05-16T13:09:31.181Z,19.80
2019-05-16T13:11:37.529Z,19.90
2019-05-16T13:14:01.343Z,20.10
2019-05-16T13:15:48.970Z,20.20
2019-05-16T13:17:52.713Z,20.30
2019-05-16T13:19:58.035Z,20.40
2019-05-16T13:22:01.900Z,20.60
2019-05-16T13:24:06.998Z,20.70
2019-05-16T13:26:10.847Z,20.60
2019-05-16T13:28:14.565Z,20.10
2019-05-16T13:30:18.460Z,19.50
2019-05-16T13:32:23.759Z,19.50
2019-05-16T13:34:28.094Z,19.80
2019-05-16T13:36:32.047Z,20.00
2019-05-16T13:38:35.838Z,20.10
2019-05-16T13:40:39.589Z,20.10
2019-05-16T13:42:43.337Z,20.20
2019-05-16T13:44:48.304Z,20.20
2019-05-16T13:46:53.723Z,19.90
2019-05-16T13:48:57.570Z,19.80
2019-05-16T13:51:13.856Z,19.90
2019-05-16T13:53:10.355Z,20.10
2019-05-16T13:55:16.742Z,20.40
2019-05-16T13:57:20.644Z,20.80
2019-05-16T13:59:28.187Z,21.10
2019-05-16T14:01:31.438Z,21.10
2019-05-16T14:03:37.501Z,20.90
2019-05-16T14:05:42.345Z,20.90
2019-05-16T14:07:48.017Z,20.80
2019-05-16T14:09:51.473Z,20.60
2019-05-16T14:11:56.404Z,20.50
2019-05-16T14:14:00.300Z,20.50
2019-05-16T14:16:04.170Z,20.50
2019-05-16T14:18:08.092Z,20.50
2019-05-16T14:20:14.837Z,20.50
2019-05-16T14:22:17.714Z,20.40
2019-05-16T14:24:21.612Z,20.30
2019-05-16T14:26:25.331Z,20.10
2019-05-16T14:28:29.082Z,20.00
2019-05-16T14:30:32.832Z,19.80
2019-05-16T14:32:41.546Z,19.70
2019-05-16T14:34:42.257Z,19.50
2019-05-16T14:36:47.394Z,19.40
2019-05-16T14:38:51.394Z,19.30
2019-05-16T14:40:57.376Z,19.30
2019-05-16T14:43:11.181Z,19.30
2019-05-16T14:45:16.994Z,19.40
2019-05-16T14:47:20.933Z,19.40
2019-05-16T14:49:28.406Z,19.50
2019-05-16T14:51:32.097Z,19.60
2019-05-16T14:53:37.910Z,19.60
2019-05-16T14:55:41.319Z,19.40
2019-05-16T14:57:47.154Z,19.30
2019-05-16T14:59:52.779Z,19.30
2019-05-16T15:01:58.518Z,19.30
2019-05-16T15:04:02.393Z,19.40
2019-05-16T15:06:08.516Z,19.40
2019-05-16T15:08:11.819Z,19.30
2019-05-16T15:10:16.533Z,19.30
2019-05-16T15:12:20.474Z,19.30
2019-05-16T15:14:24.240Z,19.20
2019-05-16T15:16:28.042Z,19.30
2019-05-16T15:18:31.828Z,19.40
2019-05-16T15:20:35.659Z,19.40
2019-05-16T15:22:41.019Z,19.30
2019-05-16T15:24:46.870Z,19.30
2019-05-16T15:26:50.673Z,19.30
2019-05-16T15:28:54.549Z,19.20
2019-05-16T15:30:58.812Z,19.20
2019-05-16T15:33:02.696Z,19.20
2019-05-16T15:35:07.419Z,19.20
2019-05-16T15:37:11.567Z,19.20
2019-05-16T15:39:17.001Z,19.20
2019-05-16T15:41:24.016Z,19.10
2019-05-16T15:43:27.841Z,19.10
2019-05-16T15:45:43.388Z,19.00
2019-05-16T15:47:45.804Z,18.80
2019-05-16T15:49:50.208Z,18.80
2019-05-16T15:51:56.474Z,18.70
2019-05-16T15:54:01.672Z,18.60
2019-05-16T15:56:10.516Z,18.50
2019-05-16T15:58:11.026Z,18.50
2019-05-16T16:00:17.973Z,18.30
2019-05-16T16:02:20.465Z,18.20
2019-05-16T16:04:27.061Z,18.10
2019-05-16T16:06:29.565Z,18.10
2019-05-16T16:08:37.380Z,18.10
2019-05-16T16:10:42.722Z,18.10
2019-05-16T16:12:47.740Z,18.00
2019-05-16T16:14:51.566Z,17.90
2019-05-16T16:16:57.002Z,17.80
2019-05-16T16:19:00.932Z,17.80
2019-05-16T16:21:07.871Z,17.70
2019-05-16T16:23:13.090Z,17.60
2019-05-16T16:25:17.594Z,17.60
2019-05-16T16:27:28.772Z,17.60
2019-05-16T16:29:36.737Z,17.60
2019-05-16T16:31:41.937Z,17.50
2019-05-16T16:33:45.710Z,17.40
2019-05-16T16:35:49.441Z,17.40
2019-05-16T16:37:57.445Z,17.30
2019-05-16T16:40:10.983Z,17.30
2019-05-16T16:42:12.376Z,17.20
2019-05-16T16:44:17.373Z,17.20
2019-05-16T16:46:21.409Z,17.30
2019-05-16T16:48:26.670Z,17.30
2019-05-16T16:50:49.961Z,17.30
2019-05-16T16:52:53.671Z,17.20
2019-05-16T16:54:57.555Z,17.10
2019-05-16T16:57:01.274Z,17.10
2019-05-16T16:59:06.451Z,17.10
2019-05-16T17:01:10.386Z,17.10
2019-05-16T17:03:16.545Z,17.00
2019-05-16T17:05:19.587Z,17.00
2019-05-16T17:07:24.084Z,17.00
2019-05-16T17:09:27.723Z,17.00
2019-05-16T17:11:31.945Z,16.90
2019-05-16T17:13:36.577Z,16.90
2019-05-16T17:15:42.165Z,16.70
2019-05-16T17:17:46.660Z,16.60
2019-05-16T17:19:50.546Z,16.50
2019-05-16T17:22:06.276Z,16.50
2019-05-16T17:23:59.862Z,16.40
2019-05-16T17:26:03.708Z,16.50
2019-05-16T17:28:07.400Z,16.40
2019-05-16T17:30:16.641Z,16.30
2019-05-16T17:32:19.591Z,16.40
2019-05-16T17:34:26.629Z,16.30
2019-05-16T17:36:28.881Z,16.20
2019-05-16T17:38:32.654Z,16.20
2019-05-16T17:40:38.085Z,16.20
2019-05-16T17:42:42.045Z,16.20
2019-05-16T17:44:47.264Z,16.00
2019-05-16T17:46:52.929Z,15.80
2019-05-16T17:48:57.084Z,15.70
2019-05-16T17:51:03.888Z,15.50
2019-05-16T17:53:08.226Z,15.40
2019-05-16T17:55:18.292Z,15.30
2019-05-16T17:57:19.546Z,15.30
2019-05-16T17:59:23.406Z,15.20
2019-05-16T18:01:27.489Z,15.10
2019-05-16T18:03:33.028Z,15.00
2019-05-16T18:05:37.265Z,15.00
2019-05-16T18:07:41.068Z,15.00
2019-05-16T18:09:48.356Z,14.90
2019-05-16T18:11:52.150Z,14.90
2019-05-16T18:13:57.046Z,14.90
2019-05-16T18:16:00.845Z,14.80
2019-05-16T18:18:06.846Z,14.80
2019-05-16T18:20:10.484Z,14.70
2019-05-16T18:22:14.224Z,14.60
2019-05-16T18:24:17.813Z,14.50
2019-05-16T18:26:21.508Z,14.40
2019-05-16T18:28:26.802Z,14.40
2019-05-16T18:30:30.587Z,14.40
2019-05-16T18:32:34.377Z,14.40
2019-05-16T18:34:37.965Z,14.40
2019-05-16T18:36:42.142Z,14.30
2019-05-16T18:38:46.614Z,14.30
2019-05-16T18:40:52.856Z,14.30
2019-05-16T18:42:57.105Z,14.30
2019-05-16T18:45:00.928Z,14.20
2019-05-16T18:47:08.436Z,14.10
2019-05-16T18:49:10.106Z,14.00
2019-05-16T18:51:14.196Z,13.90
2019-05-16T18:53:22.524Z,13.80
2019-05-16T18:55:26.340Z,13.70
2019-05-16T18:57:30.086Z,13.60
2019-05-16T18:59:33.969Z,13.50
2019-05-16T19:01:37.880Z,13.40
2019-05-16T19:03:41.615Z,13.30
2019-05-16T19:05:46.269Z,13.20
2019-05-16T19:07:50.214Z,13.10
2019-05-16T19:09:53.941Z,13.10
2019-05-16T19:11:59.187Z,13.00
2019-05-16T19:14:03.139Z,13.00
2019-05-16T19:16:07.005Z,13.00
2019-05-16T19:18:11.107Z,12.80
2019-05-16T19:20:17.173Z,12.70
2019-05-16T19:22:21.750Z,12.70
2019-05-16T19:24:27.729Z,12.70
2019-05-16T19:26:31.127Z,12.50
2019-05-16T19:28:36.776Z,12.30
2019-05-16T19:30:40.286Z,12.20
2019-05-16T19:32:46.719Z,12.00
2019-05-16T19:34:49.362Z,11.90
2019-05-16T19:36:52.995Z,11.80
2019-05-16T19:38:57.080Z,11.70
2019-05-16T19:41:00.779Z,11.70
2019-05-16T19:43:06.982Z,11.60
2019-05-16T19:45:10.516Z,11.60
2019-05-16T19:47:14.119Z,11.50
2019-05-16T19:49:17.804Z,11.50
2019-05-16T19:51:21.548Z,11.40
2019-05-16T19:53:27.106Z,11.30
2019-05-16T19:55:30.629Z,11.30
2019-05-16T19:57:34.514Z,11.30
2019-05-16T19:59:38.290Z,11.30
2019-05-16T20:01:41.944Z,11.30
2019-05-16T20:03:47.102Z,11.30
2019-05-16T20:05:50.967Z,11.40
2019-05-16T20:07:54.573Z,11.30
2019-05-16T20:09:58.258Z,11.30
2019-05-16T20:12:02.049Z,11.30
2019-05-16T20:14:07.466Z,11.30
2019-05-16T20:16:11.335Z,11.30
2019-05-16T20:18:18.529Z,11.40
2019-05-16T20:20:21.975Z,11.40
2019-05-16T20:22:26.156Z,11.50
2019-05-16T20:24:29.999Z,11.60
2019-05-16T20:26:33.670Z,11.60
2019-05-16T20:28:41.311Z,11.60
2019-05-16T20:30:47.412Z,11.60
2019-05-16T20:32:54.150Z,11.60
2019-05-16T20:34:59.353Z,11.50
2019-05-16T20:37:03.144Z,11.40
2019-05-16T20:39:08.568Z,11.40
2019-05-16T20:41:12.490Z,11.40
2019-05-16T20:43:23.320Z,11.40
2019-05-16T20:45:27.689Z,11.30
2019-05-16T20:47:31.676Z,11.30
2019-05-16T20:49:37.406Z,11.10
2019-05-16T20:51:40.672Z,11.10
2019-05-16T20:53:49.426Z,11.00
2019-05-16T20:55:49.836Z,11.00
2019-05-16T20:57:53.445Z,11.00
2019-05-16T20:59:57.544Z,11.00
2019-05-16T21:02:01.247Z,11.10
2019-05-16T21:04:07.034Z,11.10
2019-05-16T21:06:10.349Z,11.00
2019-05-16T21:08:14.484Z,11.10
2019-05-16T21:10:19.221Z,11.10
2019-05-16T21:12:26.478Z,11.10
2019-05-16T21:14:34.056Z,11.20
2019-05-16T21:16:38.875Z,11.10
2019-05-16T21:18:42.568Z,11.10
2019-05-16T21:20:46.961Z,11.00
2019-05-16T21:22:50.918Z,11.10
2019-05-16T21:24:57.165Z,11.00
2019-05-16T21:27:08.649Z,10.90
2019-05-16T21:29:12.599Z,10.90
2019-05-16T21:31:19.224Z,10.90
2019-05-16T21:33:21.607Z,10.90
2019-05-16T21:35:26.977Z,10.80
2019-05-16T21:37:30.791Z,10.80
2019-05-16T21:39:36.819Z,10.90
2019-05-16T21:41:41.365Z,10.90
2019-05-16T21:43:47.004Z,10.80
2019-05-16T21:45:50.490Z,10.80
2019-05-16T21:47:56.584Z,10.80
2019-05-16T21:49:59.619Z,10.70
2019-05-16T21:52:03.460Z,10.60
2019-05-16T21:54:07.378Z,10.60
2019-05-16T21:56:11.094Z,10.50
2019-05-16T21:58:14.899Z,10.50
2019-05-16T22:00:29.121Z,10.50
2019-05-16T22:02:33.024Z,10.40
2019-05-16T22:04:36.882Z,10.40
2019-05-16T22:06:40.613Z,10.40
2019-05-16T22:08:46.639Z,10.40
2019-05-16T22:10:49.889Z,10.40
2019-05-16T22:12:53.545Z,10.40
2019-05-16T22:14:57.386Z,10.30
2019-05-16T22:17:01.087Z,10.30
2019-05-16T22:19:06.943Z,10.20
2019-05-16T22:21:10.351Z,10.10
2019-05-16T22:23:14.071Z,10.10
2019-05-16T22:25:17.795Z,10.10
2019-05-16T22:27:21.573Z,10.10
2019-05-16T22:29:26.400Z,10.10
2019-05-16T22:31:30.351Z,10.10
2019-05-16T22:33:33.964Z,10.10
2019-05-16T22:35:37.686Z,10.00
2019-05-16T22:37:52.040Z,10.00
2019-05-16T22:39:46.945Z,10.10
2019-05-16T22:41:50.590Z,10.10
2019-05-16T22:43:54.268Z,10.10
2019-05-16T22:45:58.022Z,10.10
2019-05-16T22:48:01.759Z,10.10
2019-05-16T22:50:07.506Z,10.10
2019-05-16T22:52:11.349Z,10.10
2019-05-16T22:54:17.058Z,10.20
2019-05-16T22:56:20.506Z,10.20
2019-05-16T22:58:24.143Z,10.20
2019-05-16T23:00:29.442Z,10.10
2019-05-16T23:02:33.173Z,10.10
2019-05-16T23:04:36.770Z,10.10
2019-05-16T23:06:40.520Z,10.10
2019-05-16T23:08:44.245Z,10.10
2019-05-16T23:10:47.972Z,10.00
2019-05-16T23:12:51.789Z,10.00
2019-05-16T23:14:56.944Z,10.00
2019-05-16T23:17:00.700Z,10.00
2019-05-16T23:19:06.633Z,9.90
2019-05-16T23:21:10.135Z,9.90
2019-05-16T23:23:13.767Z,10.00
2019-05-16T23:25:17.490Z,9.90
2019-05-16T23:27:21.213Z,9.90
2019-05-16T23:29:27.186Z,9.80
2019-05-16T23:31:30.066Z,9.80
2019-05-16T23:33:33.805Z,9.70
2019-05-16T23:35:37.834Z,9.70
2019-05-16T23:37:41.999Z,9.70
2019-05-16T23:39:47.449Z,9.70
2019-05-16T23:41:51.337Z,9.60
2019-05-16T23:43:56.662Z,9.60
2019-05-16T23:46:00.464Z,9.60
2019-05-16T23:48:04.260Z,9.60
2019-05-16T23:50:08.339Z,9.60
2019-05-16T23:52:11.893Z,9.50
2019-05-16T23:54:17.283Z,9.50
2019-05-16T23:56:22.704Z,9.60
2019-05-16T23:58:26.366Z,9.60
